Time;durP1;ratioP1;P1;durP2;ratioP2;P2;SDS_P1;SDS_P2;PMS_P1;PMS_P2;Temp;Humidity;BMP_temperature;BMP_pressure;BME280_temperature;BME280_humidity;BME280_pressure;Samples;Min_cycle;Max_cycle;Signal;HPM_P1;HPM_P2
2021/06/20 00:06:00;;;;;;;13.62;8.08;;;;;;;19.53;69.14;98913.77;4023154;87;21102;-79
2021/06/20 00:12:02;;;;;;;16.00;8.30;;;;;;;19.39;69.59;98909.34;4016263;87;21102;-79
2021/06/20 00:18:05;;;;;;;12.20;7.20;;;;;;;19.29;70.03;98902.68;4019513;87;21059;-79
2021/06/20 00:24:08;;;;;;;11.60;7.22;;;;;;;19.23;70.29;98900.98;4016204;86;21436;-78
2021/06/20 00:30:15;;;;;;;9.95;7.70;;;;;;;19.14;70.61;98887.58;4007755;87;21054;-78
2021/06/20 00:36:16;;;;;;;18.32;8.95;;;;;;;19.04;71.00;98883.86;4007157;87;21098;-80
2021/06/20 00:42:17;;;;;;;9.35;8.40;;;;;;;18.90;71.31;98886.97;4026600;87;21052;-80
2021/06/20 00:48:18;;;;;;;12.53;9.08;;;;;;;18.79;72.06;98891.20;4015124;87;21531;-80
2021/06/20 00:54:19;;;;;;;10.08;8.60;;;;;;;18.73;72.17;98897.09;4028440;87;21107;-81
2021/06/20 01:00:21;;;;;;;11.03;8.50;;;;;;;18.69;72.32;98889.64;4046774;85;21070;-78
2021/06/20 01:06:25;;;;;;;10.60;9.08;;;;;;;18.65;72.71;98885.39;4064585;85;21616;-79
2021/06/20 01:12:27;;;;;;;15.83;9.38;;;;;;;18.68;72.86;98889.44;4071220;86;21678;-79
2021/06/20 01:18:28;;;;;;;18.23;9.43;;;;;;;18.68;73.23;98886.67;4068090;86;21027;-83
2021/06/20 01:24:30;;;;;;;13.40;9.75;;;;;;;18.49;73.46;98884.75;4067041;85;22155;-79
2021/06/20 01:30:35;;;;;;;11.60;9.13;;;;;;;18.45;74.07;98881.27;4057930;86;21031;-80
2021/06/20 01:36:36;;;;;;;9.90;8.35;;;;;;;18.68;73.76;98889.44;4056180;86;21523;-79
2021/06/20 01:42:38;;;;;;;11.85;8.25;;;;;;;18.50;73.61;98875.22;4064927;86;21042;-79
2021/06/20 01:48:40;;;;;;;10.65;8.95;;;;;;;18.54;74.13;98871.75;4064969;86;21061;-79
2021/06/20 01:54:50;;;;;;;12.30;8.70;;;;;;;18.63;73.93;98869.19;4078656;86;21078;-79
2021/06/20 02:00:50;;;;;;;12.50;8.63;;;;;;;18.06;73.62;98854.98;4069536;86;21586;-79
2021/06/20 02:06:52;;;;;;;27.82;19.27;;;;;;;17.74;74.40;98832.72;4063305;85;21114;-80
2021/06/20 02:12:55;;;;;;;15.90;11.33;;;;;;;17.66;74.74;98824.96;4051467;86;21054;-78
2021/06/20 02:18:57;;;;;;;19.70;11.78;;;;;;;17.45;75.10;98821.21;4050724;85;21086;-79
2021/06/20 02:24:59;;;;;;;12.55;9.23;;;;;;;17.46;75.70;98833.23;4048441;85;21066;-77
2021/06/20 02:31:01;;;;;;;11.22;10.03;;;;;;;17.59;75.90;98830.62;4065260;85;21594;-79
2021/06/20 02:37:06;;;;;;;13.48;9.55;;;;;;;17.46;75.96;98831.09;4068540;86;21059;-78
2021/06/20 02:43:07;;;;;;;16.67;9.70;;;;;;;17.35;76.40;98829.89;4062476;86;21049;-78
2021/06/20 02:49:08;;;;;;;12.25;9.33;;;;;;;17.32;76.86;98830.70;4070514;85;21420;-78
2021/06/20 02:55:11;;;;;;;11.78;10.10;;;;;;;17.33;77.29;98835.65;4075419;85;21107;-79
2021/06/20 03:01:12;;;;;;;12.18;8.88;;;;;;;17.34;77.49;98826.92;4066885;86;21027;-79
2021/06/20 03:07:14;;;;;;;15.00;8.70;;;;;;;17.33;77.70;98837.03;4077468;85;21070;-78
2021/06/20 03:13:16;;;;;;;11.95;9.05;;;;;;;17.31;78.06;98851.88;4081649;86;21070;-78
2021/06/20 03:19:17;;;;;;;13.88;9.85;;;;;;;17.33;78.33;98857.78;4088602;85;21038;-78
2021/06/20 03:25:18;;;;;;;15.43;9.60;;;;;;;17.31;78.57;98859.59;4060946;86;21055;-78
2021/06/20 03:31:20;;;;;;;11.05;9.40;;;;;;;17.23;78.79;98842.17;4064714;85;21067;-78
2021/06/20 03:37:21;;;;;;;11.75;8.68;;;;;;;17.21;78.89;98840.59;4072479;81;55365;-81
2021/06/20 03:43:22;;;;;;;9.63;8.38;;;;;;;17.23;78.99;98839.58;4043146;83;25343;-77
2021/06/20 03:49:23;;;;;;;12.53;10.05;;;;;;;17.19;79.49;98841.61;4048495;86;21062;-77
2021/06/20 03:55:25;;;;;;;11.68;10.00;;;;;;;17.21;79.51;98840.59;4040912;86;21067;-80
2021/06/20 04:01:28;;;;;;;13.40;9.43;;;;;;;17.28;79.63;98835.54;4038050;86;22216;-79
2021/06/20 04:07:30;;;;;;;12.25;9.13;;;;;;;17.37;79.98;98844.06;4036150;86;21063;-78
2021/06/20 04:13:31;;;;;;;12.55;9.78;;;;;;;17.50;80.19;98838.12;4051583;86;21013;-78
2021/06/20 04:19:33;;;;;;;13.38;10.15;;;;;;;17.63;80.37;98844.59;4048434;86;21548;-78
2021/06/20 04:25:34;;;;;;;10.50;8.00;;;;;;;17.75;80.36;98843.16;3928287;88;21637;-79
2021/06/20 04:31:36;;;;;;;11.93;8.88;;;;;;;18.09;80.31;98840.86;3952144;88;21105;-78
2021/06/20 04:37:40;;;;;;;15.28;10.53;;;;;;;18.25;80.08;98839.53;4051174;85;21046;-78
2021/06/20 04:43:57;;;;;;;15.25;10.20;;;;;;;18.39;79.96;98838.64;4046953;86;21071;-78
2021/06/20 04:49:44;;;;;;;11.83;8.70;;;;;;;18.39;79.85;98846.17;4042089;86;22392;-79
2021/06/20 04:55:46;;;;;;;9.78;8.78;;;;;;;18.45;79.95;98834.15;4047597;86;22331;-78
2021/06/20 05:01:47;;;;;;;13.28;9.75;;;;;;;18.59;80.01;98828.27;4049423;86;21078;-79
2021/06/20 05:07:49;;;;;;;13.78;9.38;;;;;;;18.77;79.85;98827.06;4046175;86;21097;-79
2021/06/20 05:13:50;;;;;;;11.08;8.45;;;;;;;18.84;79.70;98825.52;4047147;86;21070;-79
2021/06/20 05:19:52;;;;;;;15.15;8.23;;;;;;;18.97;79.77;98810.50;4049375;86;21067;-80
2021/06/20 05:25:53;;;;;;;12.03;8.68;;;;;;;19.20;79.67;98805.37;4050235;86;21124;-79
2021/06/20 05:31:55;;;;;;;15.85;8.88;;;;;;;19.42;79.46;98818.88;4051891;86;21082;-79
2021/06/20 05:37:58;;;;;;;11.30;7.22;;;;;;;19.67;79.17;98822.52;4047565;86;21051;-78
2021/06/20 05:44:00;;;;;;;8.48;7.55;;;;;;;19.88;79.06;98802.47;3950459;88;21113;-79
2021/06/20 05:50:02;;;;;;;11.05;8.65;;;;;;;20.04;78.81;98816.89;4047045;86;21087;-79
2021/06/20 05:56:04;;;;;;;10.55;8.13;;;;;;;20.18;78.61;98817.89;4046629;86;21090;-79
2021/06/20 06:02:05;;;;;;;8.23;7.42;;;;;;;20.34;78.57;98834.48;3998130;86;21085;-79
2021/06/20 06:08:06;;;;;;;14.28;8.00;;;;;;;20.52;78.34;98844.42;3953031;88;21117;-79
2021/06/20 06:14:11;;;;;;;12.23;9.13;;;;;;;20.62;78.17;98849.48;3949847;88;21597;-79
2021/06/20 06:20:14;;;;;;;8.60;7.35;;;;;;;20.74;77.99;98850.09;3936808;88;21097;-79
2021/06/20 06:26:15;;;;;;;11.90;7.83;;;;;;;20.93;77.62;98849.08;3948529;88;21030;-79
2021/06/20 06:32:19;;;;;;;12.05;8.58;;;;;;;21.16;77.50;98854.28;3947669;88;21095;-79
2021/06/20 06:38:20;;;;;;;8.55;7.22;;;;;;;21.31;76.08;98847.03;3874113;91;21918;-79
2021/06/20 06:44:28;;;;;;;9.53;7.12;;;;;;;21.45;76.39;98844.54;3955892;88;21677;-80
2021/06/20 06:50:37;;;;;;;8.63;6.70;;;;;;;21.71;76.30;98839.62;3935021;88;21108;-80
2021/06/20 06:56:37;;;;;;;10.28;7.70;;;;;;;22.01;76.03;98844.52;3940564;88;21097;-82
2021/06/20 07:02:38;;;;;;;15.95;7.42;;;;;;;22.44;75.62;98838.10;3906439;89;21102;-79
2021/06/20 07:08:40;;;;;;;9.65;7.17;;;;;;;23.00;75.23;98845.62;4044574;86;21054;-80
2021/06/20 07:14:42;;;;;;;8.63;7.20;;;;;;;23.67;74.39;98849.14;3926528;89;21189;-80
2021/06/20 07:20:43;;;;;;;6.83;6.03;;;;;;;24.53;73.48;98842.79;4037253;86;21526;-78
2021/06/20 07:26:46;;;;;;;7.83;6.40;;;;;;;25.88;70.20;98833.40;4042722;85;21050;-78
2021/06/20 07:32:51;;;;;;;10.43;6.47;;;;;;;25.88;70.20;98833.40;4042459;86;21154;-80
2021/06/20 07:38:53;;;;;;;9.55;6.47;;;;;;;26.27;69.22;98833.50;4032891;86;21098;-80
2021/06/20 07:44:55;;;;;;;8.88;7.15;;;;;;;26.39;68.32;98829.61;4037012;86;21919;-80
2021/06/20 07:50:56;;;;;;;10.35;6.92;;;;;;;26.76;67.32;98822.34;4046688;86;21167;-80
2021/06/20 07:57:02;;;;;;;7.25;6.05;;;;;;;26.81;65.67;98810.39;4045669;86;21079;-79
2021/06/20 08:03:03;;;;;;;6.72;6.10;;;;;;;26.77;65.20;98798.61;3938323;88;21122;-80
2021/06/20 08:09:05;;;;;;;7.62;6.28;;;;;;;26.81;64.31;98800.56;4051447;86;21107;-79
2021/06/20 08:15:17;;;;;;;9.03;6.30;;;;;;;26.90;63.71;98809.51;4046417;86;21080;-80
2021/06/20 08:21:19;;;;;;;8.18;6.55;;;;;;;27.02;63.08;98809.80;4045144;86;21646;-79
2021/06/20 08:27:20;;;;;;;7.10;6.08;;;;;;;27.07;62.35;98802.08;4047325;86;21579;-79
2021/06/20 08:33:22;;;;;;;9.40;6.45;;;;;;;27.04;61.99;98805.88;4045894;86;21075;-79
2021/06/20 08:39:23;;;;;;;7.33;5.33;;;;;;;26.91;60.84;98791.39;4039743;86;21535;-79
2021/06/20 08:45:25;;;;;;;9.10;6.22;;;;;;;27.02;60.95;98790.13;4038861;86;21544;-81
2021/06/20 08:51:27;;;;;;;8.83;6.03;;;;;;;27.14;60.75;98791.84;4046563;86;21102;-83
2021/06/20 08:57:39;;;;;;;6.85;6.12;;;;;;;27.18;59.21;98786.78;4043062;86;21067;-80
2021/06/20 09:03:45;;;;;;;5.85;5.35;;;;;;;27.18;59.21;98776.32;4043185;86;21635;-79
2021/06/20 09:09:46;;;;;;;11.53;5.97;;;;;;;27.18;58.86;98772.73;4039824;86;21099;-80
2021/06/20 09:16:01;;;;;;;6.87;5.40;;;;;;;27.29;58.37;98776.48;4046100;86;21027;-80
2021/06/20 09:22:08;;;;;;;10.98;5.15;;;;;;;27.39;58.20;98774.30;4043337;86;21119;-80
2021/06/20 09:28:13;;;;;;;6.47;4.80;;;;;;;27.57;57.80;98778.98;4041926;86;21065;-80
2021/06/20 09:34:15;;;;;;;5.78;4.60;;;;;;;27.79;57.09;98784.06;4044087;86;21098;-79
2021/06/20 09:40:17;;;;;;;5.10;4.60;;;;;;;28.09;56.13;98781.83;4045467;86;21502;-80
2021/06/20 09:46:18;;;;;;;4.30;3.75;;;;;;;28.32;55.45;98775.10;4037678;86;21083;-80
2021/06/20 09:52:33;;;;;;;5.47;4.37;;;;;;;28.61;54.75;98763.59;4041495;86;21600;-79
2021/06/20 09:58:35;;;;;;;4.37;3.40;;;;;;;28.80;53.38;98761.92;4042111;86;21142;-77
2021/06/20 10:04:56;;;;;;;;;;;;;;;;;;;;;
2021/06/20 10:10:48;;;;;;;3.67;3.22;;;;;;;29.13;48.59;98735.32;4029233;86;21087;-80
2021/06/20 10:16:55;;;;;;;4.00;3.27;;;;;;;29.33;49.08;98728.74;3946889;89;21101;-80
2021/06/20 10:22:57;;;;;;;3.72;3.42;;;;;;;29.52;49.07;98734.81;3921579;89;21042;-81
2021/06/20 10:29:05;;;;;;;5.25;3.20;;;;;;;29.60;48.92;98725.98;3956774;87;21055;-80
2021/06/20 10:35:16;;;;;;;5.95;2.95;;;;;;;29.90;48.95;98728.50;3924155;89;21624;-81
2021/06/20 10:41:22;;;;;;;5.37;3.10;;;;;;;30.19;47.98;98720.95;4025061;86;21048;-81
2021/06/20 10:47:30;;;;;;;3.80;3.30;;;;;;;30.28;47.79;98730.59;4037836;86;21036;-80
2021/06/20 10:53:41;;;;;;;4.12;3.15;;;;;;;30.63;47.49;98732.86;3950660;89;21105;-79
2021/06/20 10:59:57;;;;;;;4.58;2.90;;;;;;;30.78;46.74;98731.16;4041298;86;21039;-80
2021/06/20 11:06:11;;;;;;;;;;;;;;;31.00;44.73;98715.55;4046015;86;21075;-80
2021/06/20 11:12:26;;;;;;;2.87;2.40;;;;;;;31.22;44.20;98713.41;4041063;86;20415;-81
2021/06/20 11:18:34;;;;;;;3.35;2.70;;;;;;;31.52;42.89;98719.18;4047889;86;21127;-81
2021/06/20 11:25:01;;;;;;;3.55;2.60;;;;;;;31.59;42.50;98708.07;4041975;86;21081;-80
2021/06/20 11:31:16;;;;;;;5.28;2.25;;;;;;;31.82;39.71;98703.04;4023684;86;20996;-81
2021/06/20 11:37:44;;;;;;;3.15;1.92;;;;;;;32.17;40.18;98687.45;4043599;86;21100;-80
2021/06/20 11:44:01;;;;;;;4.50;2.25;;;;;;;32.88;36.41;98685.21;4044600;86;21096;-79
2021/06/20 11:50:32;;;;;;;4.67;2.00;;;;;;;32.97;36.97;98689.09;4049161;86;21062;-81
2021/06/20 11:56:33;;;;;;;2.60;2.00;;;;;;;33.55;38.09;98667.42;4044564;86;21066;-81
2021/06/20 12:02:37;;;;;;;3.35;1.65;;;;;;;33.87;37.70;98666.03;3936595;88;21122;-80
2021/06/20 12:08:39;;;;;;;2.87;1.93;;;;;;;33.98;37.04;98652.45;4042977;86;21091;-80
2021/06/20 12:15:03;;;;;;;1.67;1.57;;;;;;;33.82;36.87;98640.69;4043137;86;21131;-81
2021/06/20 12:21:25;;;;;;;1.62;1.30;;;;;;;33.56;36.00;98638.41;3951392;89;21515;-78
2021/06/20 12:27:39;;;;;;;3.47;1.90;;;;;;;33.23;33.80;98624.80;3920354;89;21188;-81
2021/06/20 12:34:10;;;;;;;3.22;1.85;;;;;;;32.68;33.78;98627.58;3937623;88;21022;-82
2021/06/20 12:40:25;;;;;;;2.15;1.95;;;;;;;32.30;33.89;98608.92;3969583;88;21034;-79
2021/06/20 12:46:42;;;;;;;2.67;1.90;;;;;;;31.83;35.04;98626.12;3961216;88;21050;-80
2021/06/20 12:52:50;;;;;;;2.98;2.15;;;;;;;31.46;34.93;98636.42;3961430;88;21048;-80
2021/06/20 12:59:03;;;;;;;3.27;2.05;;;;;;;31.22;34.48;98625.75;3959687;88;21101;-81
2021/06/20 13:05:06;;;;;;;2.50;1.57;;;;;;;31.13;34.90;98609.11;3954547;88;21054;-79
2021/06/20 13:11:13;;;;;;;2.50;2.02;;;;;;;31.03;34.10;98616.34;3929604;88;21632;-79
2021/06/20 13:17:29;;;;;;;2.42;2.22;;;;;;;30.73;35.20;98618.92;3985139;87;21474;-80
2021/06/20 13:23:38;;;;;;;6.20;2.47;;;;;;;30.61;36.04;98623.06;3996781;87;21620;-80
2021/06/20 13:29:48;;;;;;;3.30;2.17;;;;;;;30.51;36.51;98621.94;3997631;87;21926;-80
2021/06/20 13:35:50;;;;;;;4.28;1.98;;;;;;;30.37;36.70;98621.61;3985832;87;21972;-81
2021/06/20 13:41:51;;;;;;;2.33;2.12;;;;;;;30.33;36.98;98612.64;3985993;87;21086;-80
2021/06/20 13:47:53;;;;;;;3.17;1.85;;;;;;;30.31;36.94;98607.38;3993137;86;21073;-80
2021/06/20 13:53:58;;;;;;;3.15;2.15;;;;;;;30.26;35.59;98615.20;3993284;87;21034;-80
2021/06/20 13:59:59;;;;;;;2.52;2.20;;;;;;;30.23;35.58;98628.31;3992650;87;21049;-80
2021/06/20 14:06:00;;;;;;;2.60;2.40;;;;;;;30.31;35.89;98618.03;4029378;86;20992;-81
2021/06/20 14:12:02;;;;;;;4.30;2.30;;;;;;;30.29;35.43;98612.76;4037600;85;21511;-79
2021/06/20 14:18:04;;;;;;;4.45;2.10;;;;;;;30.22;36.71;98605.61;4039056;86;21131;-81
2021/06/20 14:24:07;;;;;;;2.95;2.37;;;;;;;30.25;37.81;98603.16;4044863;86;21841;-78
2021/06/20 14:30:13;;;;;;;2.20;2.00;;;;;;;30.31;37.75;98590.43;4041180;86;21669;-80
2021/06/20 14:36:16;;;;;;;2.45;2.25;;;;;;;30.27;37.68;98595.59;4040554;86;21672;-80
2021/06/20 14:42:19;;;;;;;3.75;2.10;;;;;;;30.32;37.93;98589.16;4037675;86;21063;-80
2021/06/20 14:48:21;;;;;;;2.17;1.98;;;;;;;30.35;38.29;98597.34;4041293;86;21567;-81
2021/06/20 14:54:23;;;;;;;2.35;1.65;;;;;;;30.33;38.53;98599.16;4041180;86;21571;-79
2021/06/20 15:00:24;;;;;;;2.50;1.92;;;;;;;30.29;38.64;98585.30;4042600;86;21150;-80
2021/06/20 15:06:28;;;;;;;2.17;1.98;;;;;;;30.23;38.91;98583.77;4046077;86;21071;-83
2021/06/20 15:12:29;;;;;;;3.35;1.75;;;;;;;30.26;39.28;98580.70;4045573;86;21082;-81
2021/06/20 15:18:31;;;;;;;3.62;1.92;;;;;;;30.34;39.42;98581.70;4045471;86;21646;-79
2021/06/20 15:24:32;;;;;;;2.22;1.85;;;;;;;30.36;39.52;98582.59;4043989;86;21528;-78
2021/06/20 15:30:41;;;;;;;1.90;1.80;;;;;;;30.16;39.94;98575.16;4051031;86;21094;-81
2021/06/20 15:36:43;;;;;;;6.12;2.17;;;;;;;29.95;40.09;98573.94;4039592;86;21138;-80
2021/06/20 15:42:49;;;;;;;2.27;2.00;;;;;;;29.86;40.12;98558.70;4045631;86;21059;-80
2021/06/20 15:48:53;;;;;;;3.65;2.12;;;;;;;29.74;40.59;98553.59;4043314;86;21516;-84
2021/06/20 15:54:54;;;;;;;3.27;2.27;;;;;;;29.56;41.10;98545.62;4045035;86;21008;-79
2021/06/20 16:00:56;;;;;;;2.50;1.75;;;;;;;29.40;41.54;98548.57;4046404;86;20993;-80
2021/06/20 16:06:59;;;;;;;3.33;1.90;;;;;;;29.34;41.58;98551.26;4035501;86;21083;-80
2021/06/20 16:13:01;;;;;;;4.08;1.80;;;;;;;29.25;41.85;98542.42;4041041;86;21079;-80
2021/06/20 16:19:02;;;;;;;2.10;1.75;;;;;;;29.13;42.20;98551.38;4036410;86;21031;-80
2021/06/20 16:25:09;;;;;;;2.22;1.57;;;;;;;28.94;42.40;98541.21;4026836;86;21137;-78
2021/06/20 16:31:14;;;;;;;;;;;;;;;28.82;42.45;98545.27;4042095;85;21608;-78
2021/06/20 16:37:19;;;;;;;2.10;1.52;;;;;;;28.69;42.16;98537.30;4042794;86;20834;-81
2021/06/20 16:43:20;;;;;;;3.90;1.70;;;;;;;28.59;42.43;98535.22;4041720;86;21145;-80
2021/06/20 16:49:29;;;;;;;3.37;1.70;;;;;;;28.49;42.29;98532.48;4044828;86;21118;-77
2021/06/20 16:55:31;;;;;;;2.23;1.40;;;;;;;28.41;42.53;98523.73;3900034;84;10000176;-80
2021/06/20 17:01:37;;;;;;;2.25;1.90;;;;;;;28.34;42.58;98513.61;4038816;86;21051;-80
2021/06/20 17:07:37;;;;;;;2.10;1.90;;;;;;;28.21;42.92;98518.28;4042538;86;21000;-79
2021/06/20 17:13:38;;;;;;;2.80;1.87;;;;;;;28.09;43.06;98508.27;4038134;86;21079;-80
2021/06/20 17:19:40;;;;;;;3.25;2.12;;;;;;;27.98;43.28;98507.43;4099568;86;21008;-79
2021/06/20 17:25:41;;;;;;;3.35;1.90;;;;;;;27.87;43.58;98501.71;4043351;86;21048;-79
2021/06/20 17:31:43;;;;;;;4.35;2.42;;;;;;;27.74;44.05;98499.34;4049046;85;21003;-80
2021/06/20 17:37:45;;;;;;;6.60;2.30;;;;;;;27.59;45.36;98505.11;4039658;86;21821;-81
2021/06/20 17:43:47;;;;;;;4.67;2.50;;;;;;;27.41;45.19;98508.33;4041151;86;21069;-78
2021/06/20 17:49:49;;;;;;;3.95;2.77;;;;;;;27.27;45.83;98514.08;4045487;86;22002;-80
2021/06/20 17:55:52;;;;;;;2.77;2.55;;;;;;;27.15;46.37;98523.66;3927642;86;9999711;-79
2021/06/20 18:01:55;;;;;;;4.12;2.40;;;;;;;26.99;46.89;98519.44;4042617;86;21098;-80
2021/06/20 18:08:06;;;;;;;5.30;2.58;;;;;;;26.65;48.13;98516.16;4047388;86;22002;-78
2021/06/20 18:14:17;;;;;;;7.55;3.22;;;;;;;26.38;48.53;98489.92;4007267;86;21079;-79
2021/06/20 18:20:34;;;;;;;5.42;3.08;;;;;;;26.38;48.53;98489.92;4043821;86;21036;-79
2021/06/20 18:26:48;;;;;;;5.60;2.90;;;;;;;26.38;48.64;98523.59;4039762;86;21685;-80
2021/06/20 18:33:16;;;;;;;;;;;;;;;;;;;;;
2021/06/20 18:39:12;;;;;;;3.92;2.95;;;;;;;25.99;49.50;98528.73;4046968;86;21066;-81
2021/06/20 18:45:22;;;;;;;4.28;3.37;;;;;;;25.82;50.09;98526.92;4043215;86;20970;-78
2021/06/20 18:57:42;;;;;;;6.20;4.28;;;;;;;25.46;50.77;98529.58;4046708;85;21510;-79
2021/06/20 19:03:47;;;;;;;6.70;3.60;;;;;;;25.28;51.20;98539.55;4038779;86;21063;-80
2021/06/20 19:09:58;;;;;;;5.78;3.67;;;;;;;25.07;51.72;98552.55;3994644;87;21079;-81
2021/06/20 19:16:04;;;;;;;5.97;3.90;;;;;;;24.86;52.23;98545.29;3993616;87;21079;-80
2021/06/20 19:22:17;;;;;;;6.37;3.17;;;;;;;24.69;52.69;98547.79;3991198;87;21049;-79
2021/06/20 19:28:32;;;;;;;5.25;4.20;;;;;;;24.57;53.14;98546.01;3996790;86;21515;-82
2021/06/20 19:34:40;;;;;;;7.58;3.75;;;;;;;24.40;53.59;98547.70;3989111;87;21052;-79
2021/06/20 19:41:06;;;;;;;4.87;4.20;;;;;;;24.25;54.08;98557.44;3992541;87;21521;-78
2021/06/20 19:47:15;;;;;;;7.55;4.97;;;;;;;24.13;54.51;98565.42;3998517;87;21035;-78
2021/06/20 19:53:17;;;;;;;5.55;4.65;;;;;;;23.96;54.98;98557.92;3998632;87;21078;-78
2021/06/20 19:59:19;;;;;;;8.15;4.55;;;;;;;23.80;55.50;98568.87;3884622;85;10000222;-79
2021/06/20 20:05:21;;;;;;;7.22;4.20;;;;;;;23.70;56.01;98583.34;3997942;87;21088;-79
2021/06/20 20:11:27;;;;;;;9.63;5.40;;;;;;;23.60;56.49;98586.04;4044357;87;21051;-80
2021/06/20 20:24:16;;;;;;;6.60;4.60;;;;;;;23.45;57.31;98562.19;3986617;87;21061;-80
2021/06/20 20:30:19;;;;;;;5.95;5.20;;;;;;;23.29;57.80;98556.20;3998863;87;21083;-79
2021/06/20 20:36:21;;;;;;;6.35;5.15;;;;;;;23.10;58.27;98556.82;3990270;87;21131;-79
2021/06/20 20:42:22;;;;;;;6.17;4.65;;;;;;;22.91;58.83;98561.67;3991133;87;21082;-79
2021/06/20 20:48:24;;;;;;;7.03;4.72;;;;;;;22.78;59.52;98572.86;3999802;87;21094;-80
2021/06/20 20:54:26;;;;;;;7.53;5.42;;;;;;;22.71;60.14;98575.34;3996010;87;21024;-80
2021/06/20 21:00:33;;;;;;;8.33;5.33;;;;;;;22.52;60.38;98568.85;3995364;87;21038;-79
2021/06/20 21:06:34;;;;;;;;;;;;;;;22.23;61.21;98565.08;4017266;86;21567;-79
2021/06/20 21:12:37;;;;;;;7.33;5.70;;;;;;;22.12;61.98;98571.72;4039495;86;20153;-81
2021/06/20 21:18:39;;;;;;;9.40;6.53;;;;;;;21.94;62.45;98577.88;4046292;86;21056;-80
2021/06/20 21:24:40;;;;;;;6.45;5.75;;;;;;;21.73;62.81;98568.34;4045642;86;21047;-80
2021/06/20 21:30:41;;;;;;;8.53;5.35;;;;;;;21.56;63.34;98559.44;4043494;86;21080;-79
2021/06/20 21:36:43;;;;;;;10.35;5.60;;;;;;;21.45;63.98;98563.90;4040329;86;21392;-79
2021/06/20 21:42:45;;;;;;;10.28;6.15;;;;;;;21.47;64.37;98554.48;4048405;86;21021;-79
2021/06/20 21:48:46;;;;;;;7.47;6.62;;;;;;;21.46;64.61;98556.48;4042513;86;21578;-78
2021/06/20 21:54:56;;;;;;;8.95;6.30;;;;;;;21.29;64.86;98550.98;4044744;86;21038;-77
2021/06/20 22:00:51;;;;;;;10.60;6.15;;;;;;;21.10;65.40;98548.55;4040225;86;21050;-78
2021/06/20 22:06:52;;;;;;;9.75;7.05;;;;;;;21.00;67.26;98537.23;4046967;86;21618;-77
2021/06/20 22:12:54;;;;;;;8.80;6.87;;;;;;;21.03;66.53;98529.36;4042212;86;21082;-79
2021/06/20 22:18:59;;;;;;;10.63;6.80;;;;;;;21.00;66.66;98528.88;4052783;86;21075;-80
2021/06/20 22:25:00;;;;;;;9.78;6.40;;;;;;;20.98;67.13;98533.52;4050082;86;22241;-79
2021/06/20 22:31:05;;;;;;;8.98;6.70;;;;;;;21.03;67.46;98523.80;4048423;86;21084;-79
2021/06/20 22:37:06;;;;;;;10.23;7.40;;;;;;;21.06;67.79;98528.45;4048817;86;21046;-78
2021/06/20 22:43:07;;;;;;;9.25;6.70;;;;;;;21.06;68.00;98518.71;4051385;86;21082;-80
2021/06/20 22:49:08;;;;;;;9.83;6.37;;;;;;;20.97;68.34;98511.71;4048569;86;21107;-79
2021/06/20 22:55:17;;;;;;;10.68;6.92;;;;;;;21.12;68.89;98534.36;4042289;86;21551;-82
2021/06/20 23:01:20;;;;;;;10.30;7.08;;;;;;;21.21;68.68;98542.75;3951842;88;21093;-79
2021/06/20 23:07:21;;;;;;;8.13;7.30;;;;;;;21.12;69.18;98544.11;4045933;86;21051;-80
2021/06/20 23:13:22;;;;;;;9.33;7.00;;;;;;;21.03;69.22;98531.51;4044147;86;21038;-80
2021/06/20 23:19:31;;;;;;;10.95;7.58;;;;;;;20.78;69.80;98529.48;4042981;86;21055;-79
2021/06/20 23:25:33;;;;;;;11.33;7.50;;;;;;;20.79;70.52;98528.25;4042819;86;21047;-84
2021/06/20 23:31:34;;;;;;;12.25;7.42;;;;;;;20.74;70.53;98512.92;4041837;86;21028;-79
2021/06/20 23:37:36;;;;;;;8.08;6.60;;;;;;;20.51;70.88;98509.22;4045685;86;21963;-79
2021/06/20 23:43:38;;;;;;;16.00;8.28;;;;;;;20.55;71.23;98511.24;4042034;86;21577;-79
2021/06/20 23:49:39;;;;;;;14.83;9.18;;;;;;;20.57;71.17;98506.02;4039687;86;21689;-79
2021/06/20 23:55:40;;;;;;;12.37;8.08;;;;;;;20.26;71.44;98506.55;4043993;86;21079;-79
